createdAt,value
2023-03-23T00:00:30.727Z,6.79
2023-03-23T00:01:30.748Z,6.76
2023-03-23T00:02:30.696Z,6.69
2023-03-23T00:03:30.690Z,6.71
2023-03-23T00:04:30.700Z,6.66
2023-03-23T00:05:30.726Z,6.69
2023-03-23T00:06:30.668Z,6.71
2023-03-23T00:07:30.656Z,6.67
2023-03-23T00:08:30.627Z,6.62
2023-03-23T00:09:30.688Z,6.67
2023-03-23T00:10:30.601Z,6.85
2023-03-23T00:11:30.655Z,6.81
2023-03-23T00:12:31.320Z,6.88
2023-03-23T00:13:30.608Z,6.81
2023-03-23T00:14:30.559Z,6.84
2023-03-23T00:15:30.564Z,6.84
2023-03-23T00:16:30.686Z,6.87
2023-03-23T00:17:30.546Z,6.89
2023-03-23T00:18:30.541Z,6.92
2023-03-23T00:19:30.537Z,6.97
2023-03-23T00:20:30.499Z,6.91
2023-03-23T00:21:30.528Z,6.89
2023-03-23T00:22:30.481Z,6.94
2023-03-23T00:23:30.514Z,6.92
2023-03-23T00:24:30.725Z,6.87
2023-03-23T00:25:30.513Z,6.89
2023-03-23T00:26:30.432Z,6.92
2023-03-23T00:27:31.474Z,6.85
2023-03-23T00:28:30.505Z,6.91
2023-03-23T00:29:30.576Z,6.84
2023-03-23T00:30:30.426Z,6.76
2023-03-23T00:31:30.372Z,6.84
2023-03-23T00:32:30.370Z,6.81
2023-03-23T00:33:30.456Z,6.76
2023-03-23T00:34:30.398Z,6.74
2023-03-23T00:35:30.387Z,6.67
2023-03-23T00:36:30.323Z,6.70
2023-03-23T00:37:30.333Z,6.71
2023-03-23T00:38:30.382Z,6.73
2023-03-23T00:39:30.295Z,6.70
2023-03-23T00:40:30.287Z,6.64
2023-03-23T00:41:30.297Z,6.59
2023-03-23T00:42:30.355Z,6.55
2023-03-23T00:43:30.248Z,6.66
2023-03-23T00:44:30.252Z,6.54
2023-03-23T00:45:30.230Z,6.61
2023-03-23T00:46:30.224Z,6.64
2023-03-23T00:47:30.239Z,6.54
2023-03-23T00:48:30.183Z,6.61
2023-03-23T00:49:30.185Z,6.49
2023-03-23T00:50:38.502Z,6.69
2023-03-23T00:51:31.180Z,6.67
2023-03-23T00:52:30.275Z,6.51
2023-03-23T00:53:30.192Z,6.58
2023-03-23T00:54:30.249Z,6.55
2023-03-23T00:55:30.143Z,6.51
2023-03-23T00:56:30.143Z,6.62
2023-03-23T00:57:30.233Z,6.62
2023-03-23T00:58:30.067Z,6.54
2023-03-23T00:59:30.289Z,6.59
2023-03-23T01:00:30.058Z,6.66
2023-03-23T01:01:30.143Z,6.56
2023-03-23T01:02:30.121Z,6.71
2023-03-23T01:03:30.038Z,6.74
2023-03-23T01:04:30.056Z,6.61
2023-03-23T01:05:30.051Z,6.67
2023-03-23T01:06:30.009Z,6.69
2023-03-23T01:07:29.983Z,6.77
2023-03-23T01:08:30.021Z,6.77
2023-03-23T01:09:30.024Z,6.69
2023-03-23T01:10:29.929Z,6.71
2023-03-23T01:11:29.983Z,6.84
2023-03-23T01:12:29.935Z,6.73
2023-03-23T01:13:29.950Z,6.69
2023-03-23T01:14:29.917Z,6.79
2023-03-23T01:15:29.901Z,6.69
2023-03-23T01:16:29.921Z,6.76
2023-03-23T01:17:29.876Z,6.73
2023-03-23T01:18:33.959Z,6.73
2023-03-23T01:19:29.841Z,6.73
2023-03-23T01:20:29.843Z,6.69
2023-03-23T01:21:29.853Z,6.69
2023-03-23T01:22:29.808Z,6.70
2023-03-23T01:23:29.815Z,6.77
2023-03-23T01:24:29.916Z,6.81
2023-03-23T01:25:29.817Z,6.76
2023-03-23T01:26:29.786Z,6.79
2023-03-23T01:27:29.743Z,6.81
2023-03-23T01:28:29.753Z,6.85
2023-03-23T01:29:30.217Z,6.77
2023-03-23T01:30:29.826Z,6.85
2023-03-23T01:31:29.724Z,6.81
2023-03-23T01:32:29.739Z,6.85
2023-03-23T01:33:29.827Z,6.87
2023-03-23T01:34:29.720Z,6.88
2023-03-23T01:35:29.694Z,6.92
2023-03-23T01:36:29.650Z,6.92
2023-03-23T01:37:29.774Z,6.88
2023-03-23T01:38:29.775Z,6.87
2023-03-23T01:39:29.621Z,6.85
2023-03-23T01:40:29.717Z,6.92
2023-03-23T01:41:29.629Z,6.92
2023-03-23T01:42:29.587Z,6.94
2023-03-23T01:43:29.596Z,6.99
2023-03-23T01:44:29.747Z,6.95
2023-03-23T01:45:29.675Z,6.91
2023-03-23T01:46:29.560Z,6.81
2023-03-23T01:47:29.534Z,6.81
2023-03-23T01:48:29.573Z,6.89
2023-03-23T01:49:29.532Z,6.88
2023-03-23T01:50:29.542Z,6.97
2023-03-23T01:51:40.054Z,6.88
2023-03-23T01:52:30.495Z,6.95
2023-03-23T01:53:29.514Z,6.92
2023-03-23T01:54:29.616Z,6.94
2023-03-23T01:55:29.435Z,6.99
2023-03-23T01:56:29.477Z,7.03
2023-03-23T01:57:29.443Z,7.02
2023-03-23T01:58:29.483Z,6.99
2023-03-23T01:59:29.446Z,7.03
2023-03-23T02:00:29.469Z,7.02
2023-03-23T02:01:29.368Z,7.05
2023-03-23T02:02:29.432Z,7.05
2023-03-23T02:03:29.377Z,6.99
2023-03-23T02:04:29.345Z,7.02
2023-03-23T02:05:29.399Z,6.98
2023-03-23T02:06:29.355Z,7.03
2023-03-23T02:07:29.359Z,6.98
2023-03-23T02:08:29.282Z,7.06
2023-03-23T02:09:29.315Z,7.03
2023-03-23T02:10:29.428Z,7.07
2023-03-23T02:11:29.280Z,7.05
2023-03-23T02:12:29.242Z,7.05
2023-03-23T02:13:29.342Z,7.05
2023-03-23T02:14:29.218Z,7.03
2023-03-23T02:15:29.204Z,7.02
2023-03-23T02:16:29.219Z,6.99
2023-03-23T02:17:29.177Z,7.07
2023-03-23T02:18:29.226Z,7.07
2023-03-23T02:19:29.155Z,7.10
2023-03-23T02:20:29.157Z,7.13
2023-03-23T02:21:29.296Z,6.99
2023-03-23T02:22:29.155Z,7.07
2023-03-23T02:23:29.109Z,6.99
2023-03-23T02:24:29.218Z,7.05
2023-03-23T02:25:29.085Z,6.97
2023-03-23T02:26:29.133Z,7.06
2023-03-23T02:27:29.130Z,7.03
2023-03-23T02:28:29.087Z,7.06
2023-03-23T02:29:29.068Z,7.03
2023-03-23T02:30:29.077Z,7.06
2023-03-23T02:31:29.117Z,6.99
2023-03-23T02:32:29.113Z,7.05
2023-03-23T02:33:29.226Z,6.99
2023-03-23T02:34:28.981Z,6.99
2023-03-23T02:35:28.999Z,6.94
2023-03-23T02:36:28.994Z,6.95
2023-03-23T02:37:29.006Z,6.98
2023-03-23T02:38:29.070Z,6.95
2023-03-23T02:39:29.073Z,6.89
2023-03-23T02:40:28.920Z,6.87
2023-03-23T02:41:28.925Z,6.85
2023-03-23T02:42:29.014Z,6.94
2023-03-23T02:43:28.975Z,6.85
2023-03-23T02:44:29.870Z,6.95
2023-03-23T02:45:29.097Z,6.95
2023-03-23T02:46:28.910Z,6.94
2023-03-23T02:47:28.863Z,6.97
2023-03-23T02:48:28.963Z,6.94
2023-03-23T02:49:28.818Z,7.06
2023-03-23T02:50:28.820Z,7.05
2023-03-23T02:51:28.830Z,7.05
2023-03-23T02:52:29.778Z,7.03
2023-03-23T02:53:28.768Z,7.03
2023-03-23T02:54:28.814Z,7.07
2023-03-23T02:55:28.754Z,7.07
2023-03-23T02:56:28.821Z,7.09
2023-03-23T02:57:40.192Z,7.12
2023-03-23T02:58:29.722Z,7.12
2023-03-23T02:59:28.732Z,7.16
2023-03-23T03:00:28.750Z,7.12
2023-03-23T03:01:28.718Z,7.16
2023-03-23T03:02:28.990Z,7.03
2023-03-23T03:03:28.762Z,7.15
2023-03-23T03:04:28.641Z,7.15
2023-03-23T03:05:28.653Z,7.15
2023-03-23T03:06:28.675Z,7.13
2023-03-23T03:07:28.650Z,7.16
2023-03-23T03:08:28.641Z,7.12
2023-03-23T03:09:28.701Z,7.17
2023-03-23T03:10:28.616Z,7.12
2023-03-23T03:11:28.614Z,7.23
2023-03-23T03:12:28.697Z,7.13
2023-03-23T03:13:28.734Z,7.21
2023-03-23T03:14:28.568Z,7.13
2023-03-23T03:15:28.597Z,7.21
2023-03-23T03:16:28.552Z,7.25
2023-03-23T03:17:28.655Z,7.28
2023-03-23T03:18:28.517Z,7.25
2023-03-23T03:19:28.476Z,7.35
2023-03-23T03:20:28.476Z,7.34
2023-03-23T03:21:28.488Z,7.30
2023-03-23T03:22:28.533Z,7.32
2023-03-23T03:23:28.493Z,7.32
2023-03-23T03:24:28.445Z,7.42
2023-03-23T03:25:28.414Z,7.40
2023-03-23T03:26:28.424Z,7.34
2023-03-23T03:27:28.422Z,7.39
2023-03-23T03:28:28.430Z,7.37
2023-03-23T03:29:28.382Z,7.39
2023-03-23T03:30:28.389Z,7.39
2023-03-23T03:31:28.512Z,7.32
2023-03-23T03:32:28.398Z,7.39
2023-03-23T03:33:28.362Z,7.42
2023-03-23T03:34:28.314Z,7.42
2023-03-23T03:35:28.323Z,7.46
2023-03-23T03:36:28.326Z,7.40
2023-03-23T03:37:28.291Z,7.48
2023-03-23T03:38:28.299Z,7.52
2023-03-23T03:39:28.257Z,7.53
2023-03-23T03:40:28.308Z,7.50
2023-03-23T03:41:28.262Z,7.49
2023-03-23T03:42:28.265Z,7.45
2023-03-23T03:43:28.329Z,7.53
2023-03-23T03:44:28.377Z,7.61
2023-03-23T03:45:28.204Z,7.58
2023-03-23T03:46:28.199Z,7.57
2023-03-23T03:47:28.259Z,7.60
2023-03-23T03:48:28.300Z,7.53
2023-03-23T03:49:28.173Z,7.58
2023-03-23T03:50:28.140Z,7.57
2023-03-23T03:51:28.590Z,7.61
2023-03-23T03:52:28.127Z,7.72
2023-03-23T03:53:28.810Z,7.57
2023-03-23T03:54:28.096Z,7.71
2023-03-23T03:55:28.106Z,7.77
2023-03-23T03:56:28.215Z,7.68
2023-03-23T03:57:28.162Z,7.75
2023-03-23T03:58:28.169Z,7.69
2023-03-23T03:59:28.085Z,7.79
2023-03-23T04:00:28.063Z,7.80
2023-03-23T04:01:28.098Z,7.79
2023-03-23T04:02:28.008Z,7.75
2023-03-23T04:03:27.998Z,7.71
2023-03-23T04:04:28.011Z,7.69
2023-03-23T04:05:28.017Z,7.72
2023-03-23T04:06:28.027Z,7.72
2023-03-23T04:07:27.971Z,7.80
2023-03-23T04:08:27.940Z,7.82
2023-03-23T04:09:27.938Z,7.74
2023-03-23T04:10:32.727Z,7.75
2023-03-23T04:11:32.714Z,7.83
2023-03-23T04:12:27.889Z,7.79
2023-03-23T04:13:27.892Z,7.75
2023-03-23T04:14:27.873Z,7.82
2023-03-23T04:15:27.881Z,7.83
2023-03-23T04:16:28.021Z,7.90
2023-03-23T04:17:27.990Z,7.82
2023-03-23T04:18:27.825Z,7.83
2023-03-23T04:19:27.827Z,7.83
2023-03-23T04:20:32.151Z,7.82
2023-03-23T04:21:27.815Z,7.95
2023-03-23T04:22:27.778Z,7.90
2023-03-23T04:23:27.835Z,7.95
2023-03-23T04:24:56.101Z,7.92
2023-03-23T04:25:28.863Z,7.93
2023-03-23T04:26:27.773Z,7.97
2023-03-23T04:27:27.747Z,7.98
2023-03-23T04:28:27.722Z,8.02
2023-03-23T04:29:27.731Z,8.12
2023-03-23T04:30:27.693Z,8.12
2023-03-23T04:31:27.683Z,8.05
2023-03-23T04:32:27.693Z,8.10
2023-03-23T04:33:27.698Z,8.12
2023-03-23T04:34:28.765Z,8.15
2023-03-23T04:35:27.701Z,8.22
2023-03-23T04:36:27.651Z,8.11
2023-03-23T04:37:28.649Z,8.16
2023-03-23T04:38:27.754Z,8.20
2023-03-23T04:39:27.642Z,8.26
2023-03-23T04:40:27.570Z,8.23
2023-03-23T04:41:27.665Z,8.26
2023-03-23T04:42:27.590Z,8.29
2023-03-23T04:43:27.560Z,8.26
2023-03-23T04:44:27.687Z,8.22
2023-03-23T04:45:27.571Z,8.22
2023-03-23T04:46:27.538Z,8.25
2023-03-23T04:47:27.648Z,8.20
2023-03-23T04:48:27.526Z,8.22
2023-03-23T04:49:27.498Z,8.12
2023-03-23T04:50:27.507Z,8.16
2023-03-23T04:51:27.466Z,8.12
2023-03-23T04:52:27.519Z,8.22
2023-03-23T04:53:27.479Z,8.19
2023-03-23T04:54:27.467Z,8.19
2023-03-23T04:55:27.442Z,8.19
2023-03-23T04:56:27.407Z,8.23
2023-03-23T04:57:27.382Z,8.23
2023-03-23T04:58:28.045Z,8.25
2023-03-23T04:59:27.364Z,8.29
2023-03-23T05:00:27.482Z,8.25
2023-03-23T05:01:27.369Z,8.26
2023-03-23T05:02:27.530Z,8.23
2023-03-23T05:03:27.452Z,8.37
2023-03-23T05:04:27.315Z,8.37
2023-03-23T05:05:27.312Z,8.26
2023-03-23T05:06:27.405Z,8.41
2023-03-23T05:07:27.415Z,8.37
2023-03-23T05:08:27.338Z,8.40
2023-03-23T05:09:27.272Z,8.33
2023-03-23T05:10:27.446Z,8.37
2023-03-23T05:11:27.242Z,8.38
2023-03-23T05:12:27.242Z,8.43
2023-03-23T05:13:27.266Z,8.28
2023-03-23T05:14:27.192Z,8.48
2023-03-23T05:15:27.190Z,8.45
2023-03-23T05:16:27.175Z,8.44
2023-03-23T05:17:27.591Z,8.43
2023-03-23T05:18:27.203Z,8.43
2023-03-23T05:19:27.187Z,8.45
2023-03-23T05:20:27.127Z,8.48
2023-03-23T05:21:27.126Z,8.56
2023-03-23T05:22:27.112Z,8.47
2023-03-23T05:23:27.139Z,8.53
2023-03-23T05:24:27.740Z,8.50
2023-03-23T05:25:27.195Z,8.55
2023-03-23T05:26:27.152Z,8.52
2023-03-23T05:27:27.073Z,8.47
2023-03-23T05:28:27.154Z,8.50
2023-03-23T05:29:27.054Z,8.48
2023-03-23T05:30:27.065Z,8.48
2023-03-23T05:31:27.083Z,8.52
2023-03-23T05:32:27.000Z,8.50
2023-03-23T05:33:26.987Z,8.53
2023-03-23T05:34:27.008Z,8.53
2023-03-23T05:35:27.159Z,8.56
2023-03-23T05:36:26.961Z,8.61
2023-03-23T05:37:26.936Z,8.62
2023-03-23T05:38:26.939Z,8.66
2023-03-23T05:39:27.018Z,8.68
2023-03-23T05:40:26.919Z,8.71
2023-03-23T05:41:26.972Z,8.68
2023-03-23T05:42:27.042Z,8.68
2023-03-23T05:43:26.870Z,8.80
2023-03-23T05:44:26.878Z,8.79
2023-03-23T05:45:26.880Z,8.84
2023-03-23T05:46:26.863Z,8.77
2023-03-23T05:47:26.877Z,8.94
2023-03-23T05:48:26.817Z,8.95
2023-03-23T05:49:26.830Z,9.08
2023-03-23T05:50:26.905Z,9.11
2023-03-23T05:51:26.830Z,9.15
2023-03-23T05:52:26.808Z,9.18
2023-03-23T05:53:26.811Z,9.23
2023-03-23T05:54:26.743Z,9.35
2023-03-23T05:55:26.764Z,9.33
2023-03-23T05:56:26.739Z,9.42
2023-03-23T05:57:26.772Z,9.36
2023-03-23T05:58:28.704Z,9.42
2023-03-23T05:59:26.693Z,9.43
2023-03-23T06:00:26.673Z,9.50
2023-03-23T06:01:26.674Z,9.51
2023-03-23T06:02:26.682Z,9.43
2023-03-23T06:03:26.818Z,9.50
2023-03-23T06:04:26.699Z,9.53
2023-03-23T06:05:26.635Z,9.57
2023-03-23T06:06:26.608Z,9.48
2023-03-23T06:07:26.819Z,9.54
2023-03-23T06:08:26.637Z,9.50
2023-03-23T06:09:26.619Z,9.51
2023-03-23T06:10:26.619Z,9.43
2023-03-23T06:11:26.575Z,9.42
2023-03-23T06:12:26.847Z,9.53
2023-03-23T06:13:26.577Z,9.57
2023-03-23T06:14:26.693Z,9.58
2023-03-23T06:15:26.582Z,9.50
2023-03-23T06:16:26.610Z,9.57
2023-03-23T06:17:26.563Z,9.48
2023-03-23T06:18:26.489Z,9.48
2023-03-23T06:19:26.587Z,9.51
2023-03-23T06:20:26.546Z,9.53
2023-03-23T06:21:26.494Z,9.50
2023-03-23T06:22:26.430Z,9.54
2023-03-23T06:23:26.828Z,9.42
2023-03-23T06:24:26.442Z,9.51
2023-03-23T06:25:26.425Z,9.48
2023-03-23T06:26:26.430Z,9.48
2023-03-23T06:27:26.436Z,9.46
2023-03-23T06:28:26.364Z,9.54
2023-03-23T06:29:26.385Z,9.48
2023-03-23T06:30:26.462Z,9.56
2023-03-23T06:31:26.365Z,9.47
2023-03-23T06:32:26.371Z,9.51
2023-03-23T06:33:26.371Z,9.51
2023-03-23T06:34:26.310Z,9.57
2023-03-23T06:35:33.996Z,9.56
2023-03-23T06:36:26.322Z,9.50
2023-03-23T06:37:26.293Z,9.51
2023-03-23T06:38:26.252Z,9.53
2023-03-23T06:39:26.257Z,9.60
2023-03-23T06:40:26.230Z,9.51
2023-03-23T06:41:26.220Z,9.64
2023-03-23T06:42:26.221Z,9.64
2023-03-23T06:43:26.231Z,9.56
2023-03-23T06:44:26.225Z,9.68
2023-03-23T06:45:26.215Z,9.69
2023-03-23T06:46:26.170Z,9.64
2023-03-23T06:47:26.181Z,9.69
2023-03-23T06:48:26.166Z,9.64
2023-03-23T06:49:26.159Z,9.68
2023-03-23T06:50:26.139Z,9.65
2023-03-23T06:51:26.140Z,9.64
2023-03-23T06:52:26.108Z,9.65
2023-03-23T06:53:26.104Z,9.78
2023-03-23T06:54:26.077Z,9.78
2023-03-23T06:55:26.075Z,9.75
2023-03-23T06:56:26.081Z,9.79
2023-03-23T06:57:26.066Z,9.72
2023-03-23T06:58:26.086Z,9.78
2023-03-23T06:59:26.020Z,9.86
2023-03-23T07:00:26.042Z,9.93
2023-03-23T07:01:26.024Z,9.94
2023-03-23T07:02:25.999Z,9.93
2023-03-23T07:03:25.975Z,10.04
2023-03-23T07:04:25.984Z,10.02
2023-03-23T07:05:25.973Z,10.12
2023-03-23T07:06:25.957Z,10.08
2023-03-23T07:07:25.959Z,10.14
2023-03-23T07:08:25.938Z,10.20
2023-03-23T07:09:41.135Z,10.30
2023-03-23T07:10:26.916Z,10.23
2023-03-23T07:11:25.906Z,10.33
2023-03-23T07:12:25.886Z,10.36
2023-03-23T07:13:25.877Z,10.47
2023-03-23T07:14:25.853Z,10.55
2023-03-23T07:15:25.846Z,10.56
2023-03-23T07:16:25.831Z,10.61
2023-03-23T07:17:25.863Z,10.71
2023-03-23T07:18:25.836Z,10.76
2023-03-23T07:19:25.809Z,10.71
2023-03-23T07:20:25.788Z,10.84
2023-03-23T07:21:25.778Z,10.81
2023-03-23T07:22:27.112Z,10.89
2023-03-23T07:23:25.779Z,10.99
2023-03-23T07:24:25.782Z,10.97
2023-03-23T07:25:25.749Z,11.14
2023-03-23T07:26:25.721Z,11.19
2023-03-23T07:27:25.702Z,11.21
2023-03-23T07:28:25.736Z,11.18
2023-03-23T07:29:25.722Z,11.18
2023-03-23T07:30:25.720Z,11.36
2023-03-23T07:31:25.660Z,11.37
2023-03-23T07:32:25.652Z,11.40
2023-03-23T07:33:25.656Z,11.47
2023-03-23T07:34:25.628Z,11.43
2023-03-23T07:35:25.653Z,11.51
2023-03-23T07:36:25.614Z,11.67
2023-03-23T07:37:25.593Z,11.69
2023-03-23T07:38:25.582Z,11.73
2023-03-23T07:39:25.684Z,11.76
2023-03-23T07:40:25.642Z,11.83
2023-03-23T07:41:25.580Z,11.88
2023-03-23T07:42:25.548Z,11.94
2023-03-23T07:43:25.523Z,11.94
2023-03-23T07:44:25.518Z,12.01
2023-03-23T07:45:25.539Z,12.04
2023-03-23T07:46:26.740Z,12.02
2023-03-23T07:47:25.538Z,12.14
2023-03-23T07:48:26.483Z,12.16
2023-03-23T07:49:25.472Z,12.27
2023-03-23T07:50:25.474Z,12.29
2023-03-23T07:51:25.449Z,12.29
2023-03-23T07:52:25.429Z,12.37
2023-03-23T07:53:25.447Z,12.41
2023-03-23T07:54:25.431Z,12.50
2023-03-23T07:55:25.403Z,12.47
2023-03-23T07:56:25.415Z,12.57
2023-03-23T07:57:25.368Z,12.59
2023-03-23T07:58:25.371Z,12.70
2023-03-23T07:59:25.368Z,12.70
2023-03-23T08:00:25.335Z,12.79
2023-03-23T08:01:25.335Z,12.78
2023-03-23T08:02:25.368Z,12.79
2023-03-23T08:03:25.303Z,12.90
2023-03-23T08:04:25.303Z,12.92
2023-03-23T08:05:25.305Z,12.97
2023-03-23T08:06:25.265Z,13.11
2023-03-23T08:07:25.288Z,13.07
2023-03-23T08:08:25.267Z,13.19
2023-03-23T08:09:25.341Z,13.17
2023-03-23T08:10:25.232Z,13.26
2023-03-23T08:11:25.258Z,13.30
2023-03-23T08:12:25.198Z,13.33
2023-03-23T08:13:25.220Z,13.41
2023-03-23T08:14:25.180Z,13.48
2023-03-23T08:15:25.222Z,13.48
2023-03-23T08:16:25.182Z,13.52
2023-03-23T08:17:25.191Z,13.62
2023-03-23T08:18:25.155Z,13.59
2023-03-23T08:19:25.125Z,13.62
2023-03-23T08:20:25.125Z,13.64
2023-03-23T08:21:25.133Z,13.63
2023-03-23T08:22:25.092Z,13.63
2023-03-23T08:23:25.073Z,13.64
2023-03-23T08:24:25.065Z,13.77
2023-03-23T08:25:25.076Z,13.79
2023-03-23T08:26:25.052Z,13.81
2023-03-23T08:27:25.061Z,13.81
2023-03-23T08:28:25.019Z,13.88
2023-03-23T08:29:25.006Z,13.95
2023-03-23T08:30:25.025Z,13.89
2023-03-23T08:31:24.986Z,14.00
2023-03-23T08:32:25.010Z,14.09
2023-03-23T08:33:24.977Z,14.12
2023-03-23T08:34:24.969Z,14.20
2023-03-23T08:35:24.940Z,14.15
2023-03-23T08:36:24.937Z,14.10
2023-03-23T08:37:24.950Z,14.20
2023-03-23T08:38:24.927Z,14.21
2023-03-23T08:39:24.945Z,14.28
2023-03-23T08:40:24.888Z,14.36
2023-03-23T08:41:24.872Z,14.45
2023-03-23T08:42:24.887Z,14.50
2023-03-23T08:43:24.861Z,14.47
2023-03-23T08:44:24.853Z,14.46
2023-03-23T08:45:24.834Z,14.55
2023-03-23T08:46:25.340Z,14.65
2023-03-23T08:47:24.851Z,14.64
2023-03-23T08:48:24.794Z,14.72
2023-03-23T08:49:24.798Z,14.78
2023-03-23T08:50:24.810Z,14.95
2023-03-23T08:51:24.766Z,14.91
2023-03-23T08:52:24.763Z,14.98
2023-03-23T08:53:24.777Z,14.99
2023-03-23T08:54:24.783Z,15.03
2023-03-23T08:55:24.767Z,15.14
2023-03-23T08:56:24.758Z,15.17
2023-03-23T08:57:24.696Z,15.32
2023-03-23T08:58:24.703Z,15.31
2023-03-23T08:59:24.674Z,15.44
2023-03-23T09:00:24.980Z,15.41
2023-03-23T09:01:24.671Z,15.44
2023-03-23T09:02:24.690Z,15.43
2023-03-23T09:03:24.631Z,15.50
2023-03-23T09:04:24.631Z,15.57
2023-03-23T09:05:24.611Z,15.65
2023-03-23T09:06:24.612Z,15.78
2023-03-23T09:07:24.611Z,15.83
2023-03-23T09:08:24.577Z,15.86
2023-03-23T09:09:24.588Z,15.96
2023-03-23T09:10:24.569Z,16.00
2023-03-23T09:11:24.565Z,16.07
2023-03-23T09:12:24.538Z,16.21
2023-03-23T09:13:24.519Z,16.24
2023-03-23T09:14:24.508Z,16.28
2023-03-23T09:15:33.148Z,16.35
2023-03-23T09:16:25.500Z,16.28
2023-03-23T09:17:24.510Z,16.45
2023-03-23T09:18:24.466Z,16.38
2023-03-23T09:19:24.459Z,16.39
2023-03-23T09:20:24.607Z,16.42
2023-03-23T09:21:24.486Z,16.41
2023-03-23T09:22:24.433Z,16.39
2023-03-23T09:23:24.456Z,16.35
2023-03-23T09:24:24.430Z,16.39
2023-03-23T09:25:24.475Z,16.49
2023-03-23T09:26:24.379Z,16.38
2023-03-23T09:27:24.374Z,16.42
2023-03-23T09:28:24.381Z,16.38
2023-03-23T09:29:24.365Z,16.38
2023-03-23T09:30:24.334Z,16.41
2023-03-23T09:31:24.323Z,16.38
2023-03-23T09:32:24.331Z,16.39
2023-03-23T09:33:24.312Z,16.45
2023-03-23T09:34:24.307Z,16.52
2023-03-23T09:35:24.305Z,16.50
2023-03-23T09:36:24.304Z,16.45
2023-03-23T09:37:24.255Z,16.50
2023-03-23T09:38:24.271Z,16.61
2023-03-23T09:39:24.273Z,16.61
2023-03-23T09:40:24.238Z,16.61
2023-03-23T09:41:24.231Z,16.61
2023-03-23T09:42:24.238Z,16.66
2023-03-23T09:43:24.202Z,16.71
2023-03-23T09:44:24.188Z,16.67
2023-03-23T09:45:24.180Z,16.75
2023-03-23T09:46:24.175Z,16.75
2023-03-23T09:47:24.195Z,16.79
2023-03-23T09:48:24.139Z,16.81
2023-03-23T09:49:24.122Z,16.96
2023-03-23T09:50:24.128Z,16.96
2023-03-23T09:51:24.109Z,17.06
2023-03-23T09:52:24.112Z,17.01
2023-03-23T09:53:24.117Z,17.11
2023-03-23T09:54:24.083Z,17.04
2023-03-23T09:55:24.059Z,17.04
2023-03-23T09:56:24.057Z,17.16
2023-03-23T09:57:24.174Z,17.21
2023-03-23T09:58:24.043Z,17.23
2023-03-23T09:59:24.029Z,17.21
2023-03-23T10:00:24.046Z,17.28
2023-03-23T10:01:23.999Z,17.25
2023-03-23T10:02:24.050Z,17.22
2023-03-23T10:03:23.982Z,17.25
2023-03-23T10:04:23.954Z,17.31
2023-03-23T10:05:23.945Z,17.25
2023-03-23T10:06:23.958Z,17.28
2023-03-23T10:07:23.945Z,17.22
2023-03-23T10:08:23.936Z,17.26
2023-03-23T10:09:23.937Z,17.25
2023-03-23T10:10:23.888Z,17.21
2023-03-23T10:11:23.876Z,17.19
2023-03-23T10:12:23.914Z,17.19
2023-03-23T10:13:23.903Z,17.15
2023-03-23T10:14:23.867Z,17.16
2023-03-23T10:15:23.832Z,17.14
2023-03-23T10:16:23.823Z,17.18
2023-03-23T10:17:23.868Z,17.14
2023-03-23T10:18:23.813Z,17.07
2023-03-23T10:19:23.799Z,17.07
2023-03-23T10:20:23.799Z,17.07
2023-03-23T10:21:23.767Z,17.15
2023-03-23T10:22:23.752Z,17.14
2023-03-23T10:23:23.770Z,17.16
2023-03-23T10:24:23.736Z,17.23
2023-03-23T10:25:23.737Z,17.28
2023-03-23T10:26:23.732Z,17.36
2023-03-23T10:27:23.696Z,17.34
2023-03-23T10:28:23.686Z,17.41
2023-03-23T10:29:23.733Z,17.46
2023-03-23T10:30:23.686Z,17.36
2023-03-23T10:31:23.677Z,17.37
2023-03-23T10:32:23.651Z,17.40
2023-03-23T10:33:23.628Z,17.43
2023-03-23T10:34:23.622Z,17.54
2023-03-23T10:35:23.633Z,17.46
2023-03-23T10:36:23.613Z,17.46
2023-03-23T10:37:23.603Z,17.54
2023-03-23T10:38:23.577Z,17.51
2023-03-23T10:39:23.564Z,17.49
2023-03-23T10:40:23.569Z,17.52
2023-03-23T10:41:25.231Z,17.68
2023-03-23T10:42:23.553Z,17.74
2023-03-23T10:43:23.549Z,17.68
2023-03-23T10:44:23.508Z,17.72
2023-03-23T10:45:23.531Z,17.74
2023-03-23T10:46:31.615Z,17.72
2023-03-23T10:47:24.508Z,17.75
2023-03-23T10:48:23.486Z,17.79
2023-03-23T10:49:23.496Z,17.74
2023-03-23T10:50:23.444Z,17.79
2023-03-23T10:51:23.454Z,17.82
2023-03-23T10:52:23.449Z,17.82
2023-03-23T10:53:23.423Z,17.84
2023-03-23T10:54:23.394Z,17.86
2023-03-23T10:55:23.384Z,17.86
2023-03-23T10:56:23.374Z,17.86
2023-03-23T10:57:23.390Z,17.84
2023-03-23T10:58:23.377Z,17.90
2023-03-23T10:59:23.346Z,17.87
2023-03-23T11:00:23.673Z,17.90
2023-03-23T11:01:23.346Z,17.93
2023-03-23T11:02:29.312Z,17.90
2023-03-23T11:03:24.314Z,17.99
2023-03-23T11:04:23.306Z,18.00
2023-03-23T11:05:24.855Z,18.10
2023-03-23T11:06:23.263Z,18.08
2023-03-23T11:07:23.247Z,18.07
2023-03-23T11:08:23.853Z,18.10
2023-03-23T11:09:23.236Z,18.10
2023-03-23T11:10:23.377Z,17.99
2023-03-23T11:11:23.202Z,18.05
2023-03-23T11:12:23.206Z,18.11
2023-03-23T11:13:23.185Z,18.11
2023-03-23T11:14:23.199Z,18.08
2023-03-23T11:15:23.193Z,18.05
2023-03-23T11:16:23.196Z,18.00
2023-03-23T11:17:23.195Z,18.10
2023-03-23T11:18:23.137Z,18.03
2023-03-23T11:19:23.113Z,18.05
2023-03-23T11:20:23.111Z,18.12
2023-03-23T11:21:23.112Z,18.10
2023-03-23T11:22:23.116Z,18.10
2023-03-23T11:23:23.074Z,18.11
2023-03-23T11:24:23.056Z,18.08
2023-03-23T11:25:23.097Z,18.02
2023-03-23T11:26:23.071Z,18.14
2023-03-23T11:27:23.050Z,18.15
2023-03-23T11:28:23.050Z,18.12
2023-03-23T11:29:23.014Z,18.18
2023-03-23T11:30:22.991Z,18.12
2023-03-23T11:31:22.985Z,18.18
2023-03-23T11:32:22.995Z,18.23
2023-03-23T11:33:23.014Z,18.20
2023-03-23T11:34:22.945Z,18.26
2023-03-23T11:35:22.933Z,18.26
2023-03-23T11:36:22.956Z,18.25
2023-03-23T11:37:22.953Z,18.29
2023-03-23T11:38:22.954Z,18.29
2023-03-23T11:39:22.958Z,18.29
2023-03-23T11:40:22.878Z,18.32
2023-03-23T11:41:22.866Z,18.33
2023-03-23T11:42:22.870Z,18.33
2023-03-23T11:43:22.851Z,18.41
2023-03-23T11:44:22.860Z,18.42
2023-03-23T11:45:22.819Z,18.47
2023-03-23T11:46:22.823Z,18.54
2023-03-23T11:47:22.798Z,18.45
2023-03-23T11:48:22.803Z,18.54
2023-03-23T11:49:25.806Z,18.63
2023-03-23T11:50:22.785Z,18.63
2023-03-23T11:51:22.756Z,18.58
2023-03-23T11:52:22.754Z,18.55
2023-03-23T11:53:22.740Z,18.62
2023-03-23T11:54:22.750Z,18.69
2023-03-23T11:55:22.789Z,18.82
2023-03-23T11:56:22.736Z,18.78
2023-03-23T11:57:22.703Z,18.82
2023-03-23T11:58:22.677Z,18.90
2023-03-23T11:59:22.685Z,18.94
2023-03-23T12:00:22.678Z,19.00
2023-03-23T12:01:22.653Z,18.90
2023-03-23T12:02:22.629Z,18.88
2023-03-23T12:03:22.620Z,18.94
2023-03-23T12:04:22.638Z,18.91
2023-03-23T12:05:22.621Z,18.84
2023-03-23T12:06:22.602Z,18.87
2023-03-23T12:07:22.582Z,18.91
2023-03-23T12:08:22.607Z,19.00
2023-03-23T12:09:22.570Z,18.98
2023-03-23T12:10:30.679Z,19.00
2023-03-23T12:11:23.562Z,19.02
2023-03-23T12:12:22.527Z,19.00
2023-03-23T12:13:22.506Z,19.04
2023-03-23T12:14:23.259Z,19.06
2023-03-23T12:15:22.504Z,19.04
2023-03-23T12:16:22.477Z,19.10
2023-03-23T12:17:22.492Z,19.16
2023-03-23T12:18:22.476Z,19.14
2023-03-23T12:19:22.440Z,19.16
2023-03-23T12:20:22.635Z,19.19
2023-03-23T12:21:22.468Z,19.13
2023-03-23T12:22:22.413Z,19.23
2023-03-23T12:23:22.419Z,19.29
2023-03-23T12:24:22.422Z,19.21
2023-03-23T12:25:22.410Z,19.26
2023-03-23T12:26:22.363Z,19.14
2023-03-23T12:27:22.355Z,19.21
2023-03-23T12:28:22.361Z,19.25
2023-03-23T12:29:22.342Z,19.19
2023-03-23T12:30:22.363Z,19.10
2023-03-23T12:31:22.308Z,19.02
2023-03-23T12:32:22.309Z,19.10
2023-03-23T12:33:22.300Z,19.11
2023-03-23T12:34:22.282Z,19.06
2023-03-23T12:35:24.205Z,19.07
2023-03-23T12:36:22.318Z,19.06
2023-03-23T12:37:22.265Z,19.10
2023-03-23T12:38:22.229Z,19.04
2023-03-23T12:39:22.246Z,19.02
2023-03-23T12:40:22.234Z,19.04
2023-03-23T12:41:22.232Z,19.02
2023-03-23T12:42:22.188Z,19.14
2023-03-23T12:43:22.177Z,19.21
2023-03-23T12:44:22.187Z,19.18
2023-03-23T12:45:22.171Z,19.19
2023-03-23T12:46:22.161Z,19.19
2023-03-23T12:47:22.174Z,19.18
2023-03-23T12:48:22.138Z,19.19
2023-03-23T12:49:22.109Z,19.19
2023-03-23T12:50:22.109Z,19.07
2023-03-23T12:51:22.102Z,19.10
2023-03-23T12:52:22.111Z,19.08
2023-03-23T12:53:22.085Z,18.91
2023-03-23T12:54:22.050Z,18.94
2023-03-23T12:55:22.046Z,18.87
2023-03-23T12:56:22.031Z,18.85
2023-03-23T12:57:22.038Z,18.87
2023-03-23T12:58:22.041Z,18.81
2023-03-23T12:59:21.996Z,18.81
2023-03-23T13:00:22.031Z,18.82
2023-03-23T13:01:21.973Z,18.75
2023-03-23T13:02:22.063Z,18.76
2023-03-23T13:03:21.967Z,18.67
2023-03-23T13:04:21.968Z,18.67
2023-03-23T13:05:21.930Z,18.62
2023-03-23T13:06:21.916Z,18.66